sensor_id;sensor_type;location;lat;lon;timestamp;P1;durP1;ratioP1;P2;durP2;ratioP2
21507;SDS011;10915;54.352;9.074;2023-04-06T00:00:51;22.50;;;18.57;;
21507;SDS011;10915;54.352;9.074;2023-04-06T00:03:17;22.70;;;15.40;;
21507;SDS011;10915;54.352;9.074;2023-04-06T00:05:43;46.37;;;20.03;;
21507;SDS011;10915;54.352;9.074;2023-04-06T00:08:09;23.17;;;14.77;;
21507;SDS011;10915;54.352;9.074;2023-04-06T00:10:35;42.90;;;19.50;;
21507;SDS011;10915;54.352;9.074;2023-04-06T00:13:01;19.70;;;16.50;;
21507;SDS011;10915;54.352;9.074;2023-04-06T00:15:26;25.83;;;21.77;;
21507;SDS011;10915;54.352;9.074;2023-04-06T00:17:52;26.67;;;22.53;;
21507;SDS011;10915;54.352;9.074;2023-04-06T00:20:18;29.90;;;24.87;;
21507;SDS011;10915;54.352;9.074;2023-04-06T00:22:44;29.00;;;24.93;;
21507;SDS011;10915;54.352;9.074;2023-04-06T00:25:10;29.07;;;24.80;;
21507;SDS011;10915;54.352;9.074;2023-04-06T00:27:37;34.63;;;27.73;;
21507;SDS011;10915;54.352;9.074;2023-04-06T00:30:03;31.03;;;27.57;;
21507;SDS011;10915;54.352;9.074;2023-04-06T00:32:30;30.43;;;26.60;;
21507;SDS011;10915;54.352;9.074;2023-04-06T00:34:56;28.20;;;24.57;;
21507;SDS011;10915;54.352;9.074;2023-04-06T00:37:22;28.93;;;24.07;;
21507;SDS011;10915;54.352;9.074;2023-04-06T00:39:48;27.03;;;23.30;;
21507;SDS011;10915;54.352;9.074;2023-04-06T00:42:14;23.20;;;18.30;;
21507;SDS011;10915;54.352;9.074;2023-04-06T00:44:43;20.97;;;17.73;;
21507;SDS011;10915;54.352;9.074;2023-04-06T00:47:09;20.23;;;16.37;;
21507;SDS011;10915;54.352;9.074;2023-04-06T00:49:35;19.67;;;16.30;;
21507;SDS011;10915;54.352;9.074;2023-04-06T00:52:01;58.27;;;19.73;;
21507;SDS011;10915;54.352;9.074;2023-04-06T00:54:27;56.00;;;16.00;;
21507;SDS011;10915;54.352;9.074;2023-04-06T00:56:53;139.87;;;23.27;;
21507;SDS011;10915;54.352;9.074;2023-04-06T00:59:20;45.23;;;15.87;;
21507;SDS011;10915;54.352;9.074;2023-04-06T01:01:45;24.57;;;16.50;;
21507;SDS011;10915;54.352;9.074;2023-04-06T01:04:11;20.60;;;15.77;;
21507;SDS011;10915;54.352;9.074;2023-04-06T01:06:37;17.83;;;14.00;;
21507;SDS011;10915;54.352;9.074;2023-04-06T01:09:02;19.30;;;16.23;;
21507;SDS011;10915;54.352;9.074;2023-04-06T01:11:28;29.83;;;17.50;;
21507;SDS011;10915;54.352;9.074;2023-04-06T01:13:54;21.13;;;16.53;;
21507;SDS011;10915;54.352;9.074;2023-04-06T01:16:20;24.83;;;16.90;;
21507;SDS011;10915;54.352;9.074;2023-04-06T01:18:45;23.33;;;16.87;;
21507;SDS011;10915;54.352;9.074;2023-04-06T01:21:11;21.63;;;18.67;;
21507;SDS011;10915;54.352;9.074;2023-04-06T01:23:49;20.40;;;18.30;;
21507;SDS011;10915;54.352;9.074;2023-04-06T01:26:15;19.67;;;17.57;;
21507;SDS011;10915;54.352;9.074;2023-04-06T01:28:41;19.50;;;17.40;;
21507;SDS011;10915;54.352;9.074;2023-04-06T01:31:07;17.97;;;16.17;;
21507;SDS011;10915;54.352;9.074;2023-04-06T01:33:33;20.03;;;17.90;;
21507;SDS011;10915;54.352;9.074;2023-04-06T01:35:59;21.20;;;18.30;;
21507;SDS011;10915;54.352;9.074;2023-04-06T01:38:25;20.97;;;17.50;;
21507;SDS011;10915;54.352;9.074;2023-04-06T01:40:51;16.30;;;14.60;;
21507;SDS011;10915;54.352;9.074;2023-04-06T01:43:17;15.97;;;14.33;;
21507;SDS011;10915;54.352;9.074;2023-04-06T01:45:43;15.20;;;13.63;;
21507;SDS011;10915;54.352;9.074;2023-04-06T01:48:09;18.27;;;16.30;;
21507;SDS011;10915;54.352;9.074;2023-04-06T01:50:35;17.07;;;15.27;;
21507;SDS011;10915;54.352;9.074;2023-04-06T01:53:01;15.67;;;14.07;;
21507;SDS011;10915;54.352;9.074;2023-04-06T01:55:26;17.50;;;15.67;;
21507;SDS011;10915;54.352;9.074;2023-04-06T01:57:52;14.90;;;13.50;;
21507;SDS011;10915;54.352;9.074;2023-04-06T02:00:18;16.07;;;14.47;;
21507;SDS011;10915;54.352;9.074;2023-04-06T02:02:44;16.37;;;14.77;;
21507;SDS011;10915;54.352;9.074;2023-04-06T02:05:10;16.33;;;14.80;;
21507;SDS011;10915;54.352;9.074;2023-04-06T02:07:36;17.47;;;15.67;;
21507;SDS011;10915;54.352;9.074;2023-04-06T02:10:01;17.80;;;15.93;;
21507;SDS011;10915;54.352;9.074;2023-04-06T02:12:27;16.77;;;14.97;;
21507;SDS011;10915;54.352;9.074;2023-04-06T02:14:53;16.73;;;14.90;;
21507;SDS011;10915;54.352;9.074;2023-04-06T02:17:19;16.37;;;14.77;;
21507;SDS011;10915;54.352;9.074;2023-04-06T02:19:45;16.00;;;14.30;;
21507;SDS011;10915;54.352;9.074;2023-04-06T02:22:11;15.97;;;14.37;;
21507;SDS011;10915;54.352;9.074;2023-04-06T02:24:36;15.93;;;14.23;;
21507;SDS011;10915;54.352;9.074;2023-04-06T02:27:02;17.93;;;16.03;;
21507;SDS011;10915;54.352;9.074;2023-04-06T02:29:28;19.17;;;17.20;;
21507;SDS011;10915;54.352;9.074;2023-04-06T02:31:53;15.67;;;14.17;;
21507;SDS011;10915;54.352;9.074;2023-04-06T02:34:19;19.27;;;17.27;;
21507;SDS011;10915;54.352;9.074;2023-04-06T02:36:45;16.57;;;14.97;;
21507;SDS011;10915;54.352;9.074;2023-04-06T02:39:11;15.37;;;13.77;;
21507;SDS011;10915;54.352;9.074;2023-04-06T02:41:37;14.50;;;13.10;;
21507;SDS011;10915;54.352;9.074;2023-04-06T02:44:03;18.40;;;16.50;;
21507;SDS011;10915;54.352;9.074;2023-04-06T02:46:30;21.07;;;18.87;;
21507;SDS011;10915;54.352;9.074;2023-04-06T02:48:56;20.87;;;18.67;;
21507;SDS011;10915;54.352;9.074;2023-04-06T02:51:25;18.37;;;16.37;;
21507;SDS011;10915;54.352;9.074;2023-04-06T02:53:51;19.97;;;18.00;;
21507;SDS011;10915;54.352;9.074;2023-04-06T02:56:16;19.83;;;17.77;;
21507;SDS011;10915;54.352;9.074;2023-04-06T02:58:42;21.60;;;19.23;;
21507;SDS011;10915;54.352;9.074;2023-04-06T03:01:08;21.07;;;18.77;;
21507;SDS011;10915;54.352;9.074;2023-04-06T03:03:33;23.37;;;19.87;;
21507;SDS011;10915;54.352;9.074;2023-04-06T03:05:59;23.17;;;20.17;;
21507;SDS011;10915;54.352;9.074;2023-04-06T03:08:25;26.57;;;22.83;;
21507;SDS011;10915;54.352;9.074;2023-04-06T03:10:51;24.93;;;21.97;;
21507;SDS011;10915;54.352;9.074;2023-04-06T03:13:16;24.83;;;21.57;;
21507;SDS011;10915;54.352;9.074;2023-04-06T03:15:42;27.70;;;23.40;;
21507;SDS011;10915;54.352;9.074;2023-04-06T03:18:07;25.60;;;22.70;;
21507;SDS011;10915;54.352;9.074;2023-04-06T03:20:33;27.27;;;24.30;;
21507;SDS011;10915;54.352;9.074;2023-04-06T03:22:59;25.73;;;22.93;;
21507;SDS011;10915;54.352;9.074;2023-04-06T03:25:25;28.33;;;23.93;;
21507;SDS011;10915;54.352;9.074;2023-04-06T03:27:50;29.03;;;23.60;;
21507;SDS011;10915;54.352;9.074;2023-04-06T03:30:16;26.07;;;22.90;;
21507;SDS011;10915;54.352;9.074;2023-04-06T03:32:43;26.37;;;23.57;;
21507;SDS011;10915;54.352;9.074;2023-04-06T03:35:09;25.90;;;23.10;;
21507;SDS011;10915;54.352;9.074;2023-04-06T03:37:35;27.77;;;23.90;;
21507;SDS011;10915;54.352;9.074;2023-04-06T03:40:01;27.40;;;24.37;;
21507;SDS011;10915;54.352;9.074;2023-04-06T03:42:27;27.27;;;23.20;;
21507;SDS011;10915;54.352;9.074;2023-04-06T03:44:53;25.73;;;22.80;;
21507;SDS011;10915;54.352;9.074;2023-04-06T03:47:19;25.60;;;22.33;;
21507;SDS011;10915;54.352;9.074;2023-04-06T03:49:45;24.40;;;21.77;;
21507;SDS011;10915;54.352;9.074;2023-04-06T03:52:11;25.37;;;22.67;;
21507;SDS011;10915;54.352;9.074;2023-04-06T03:54:36;25.17;;;22.43;;
21507;SDS011;10915;54.352;9.074;2023-04-06T03:57:02;24.53;;;21.90;;
21507;SDS011;10915;54.352;9.074;2023-04-06T03:59:28;25.10;;;22.43;;
21507;SDS011;10915;54.352;9.074;2023-04-06T04:01:54;25.10;;;22.33;;
21507;SDS011;10915;54.352;9.074;2023-04-06T04:04:20;23.43;;;20.60;;
21507;SDS011;10915;54.352;9.074;2023-04-06T04:06:45;23.33;;;20.43;;
21507;SDS011;10915;54.352;9.074;2023-04-06T04:09:11;27.37;;;21.80;;
21507;SDS011;10915;54.352;9.074;2023-04-06T04:11:37;25.13;;;21.07;;
21507;SDS011;10915;54.352;9.074;2023-04-06T04:14:02;23.67;;;20.30;;
21507;SDS011;10915;54.352;9.074;2023-04-06T04:16:28;23.40;;;20.90;;
21507;SDS011;10915;54.352;9.074;2023-04-06T04:18:54;26.10;;;21.13;;
21507;SDS011;10915;54.352;9.074;2023-04-06T04:21:20;24.07;;;21.47;;
21507;SDS011;10915;54.352;9.074;2023-04-06T04:23:46;22.47;;;20.07;;
21507;SDS011;10915;54.352;9.074;2023-04-06T04:26:11;22.83;;;20.23;;
21507;SDS011;10915;54.352;9.074;2023-04-06T04:28:37;23.33;;;20.83;;
21507;SDS011;10915;54.352;9.074;2023-04-06T04:31:03;23.40;;;19.13;;
21507;SDS011;10915;54.352;9.074;2023-04-06T04:33:28;24.70;;;20.60;;
21507;SDS011;10915;54.352;9.074;2023-04-06T04:35:54;22.77;;;19.50;;
21507;SDS011;10915;54.352;9.074;2023-04-06T04:38:20;25.00;;;19.27;;
21507;SDS011;10915;54.352;9.074;2023-04-06T04:40:47;24.73;;;19.90;;
21507;SDS011;10915;54.352;9.074;2023-04-06T04:43:13;22.53;;;19.17;;
21507;SDS011;10915;54.352;9.074;2023-04-06T04:45:38;22.90;;;19.20;;
21507;SDS011;10915;54.352;9.074;2023-04-06T04:48:04;22.07;;;17.87;;
21507;SDS011;10915;54.352;9.074;2023-04-06T04:50:30;21.27;;;17.17;;
21507;SDS011;10915;54.352;9.074;2023-04-06T04:52:58;19.80;;;17.70;;
21507;SDS011;10915;54.352;9.074;2023-04-06T04:55:24;21.13;;;17.30;;
21507;SDS011;10915;54.352;9.074;2023-04-06T04:57:49;20.33;;;17.10;;
21507;SDS011;10915;54.352;9.074;2023-04-06T05:00:15;18.90;;;16.23;;
21507;SDS011;10915;54.352;9.074;2023-04-06T05:02:41;17.70;;;14.10;;
21507;SDS011;10915;54.352;9.074;2023-04-06T05:05:06;22.17;;;18.50;;
21507;SDS011;10915;54.352;9.074;2023-04-06T05:07:32;20.10;;;17.77;;
21507;SDS011;10915;54.352;9.074;2023-04-06T05:09:58;20.90;;;17.17;;
21507;SDS011;10915;54.352;9.074;2023-04-06T05:12:24;19.97;;;17.33;;
21507;SDS011;10915;54.352;9.074;2023-04-06T05:14:52;20.57;;;17.73;;
21507;SDS011;10915;54.352;9.074;2023-04-06T05:17:18;20.13;;;17.70;;
21507;SDS011;10915;54.352;9.074;2023-04-06T05:19:44;21.53;;;17.90;;
21507;SDS011;10915;54.352;9.074;2023-04-06T05:22:10;19.63;;;16.53;;
21507;SDS011;10915;54.352;9.074;2023-04-06T05:24:36;24.33;;;16.37;;
21507;SDS011;10915;54.352;9.074;2023-04-06T05:27:02;19.60;;;14.80;;
21507;SDS011;10915;54.352;9.074;2023-04-06T05:29:28;18.17;;;14.23;;
21507;SDS011;10915;54.352;9.074;2023-04-06T05:31:54;17.83;;;12.80;;
21507;SDS011;10915;54.352;9.074;2023-04-06T05:34:20;15.03;;;12.83;;
21507;SDS011;10915;54.352;9.074;2023-04-06T05:36:46;13.23;;;11.33;;
21507;SDS011;10915;54.352;9.074;2023-04-06T05:39:12;11.60;;;9.03;;
21507;SDS011;10915;54.352;9.074;2023-04-06T05:41:38;12.90;;;10.50;;
21507;SDS011;10915;54.352;9.074;2023-04-06T05:44:03;14.43;;;10.27;;
21507;SDS011;10915;54.352;9.074;2023-04-06T05:46:29;15.37;;;10.33;;
21507;SDS011;10915;54.352;9.074;2023-04-06T05:48:55;13.50;;;9.77;;
21507;SDS011;10915;54.352;9.074;2023-04-06T05:51:21;12.87;;;9.20;;
21507;SDS011;10915;54.352;9.074;2023-04-06T05:53:46;11.87;;;9.07;;
21507;SDS011;10915;54.352;9.074;2023-04-06T05:56:12;13.80;;;9.50;;
21507;SDS011;10915;54.352;9.074;2023-04-06T05:58:37;14.20;;;9.60;;
21507;SDS011;10915;54.352;9.074;2023-04-06T06:01:03;12.73;;;9.23;;
21507;SDS011;10915;54.352;9.074;2023-04-06T06:11:18;12.20;;;9.17;;
21507;SDS011;10915;54.352;9.074;2023-04-06T06:14:00;11.13;;;9.07;;
21507;SDS011;10915;54.352;9.074;2023-04-06T06:16:55;12.40;;;9.67;;
21507;SDS011;10915;54.352;9.074;2023-04-06T06:19:49;15.80;;;10.33;;
21507;SDS011;10915;54.352;9.074;2023-04-06T06:22:25;14.20;;;9.87;;
21507;SDS011;10915;54.352;9.074;2023-04-06T06:24:50;13.87;;;10.47;;
21507;SDS011;10915;54.352;9.074;2023-04-06T06:27:16;12.23;;;9.63;;
21507;SDS011;10915;54.352;9.074;2023-04-06T06:29:45;13.93;;;10.37;;
21507;SDS011;10915;54.352;9.074;2023-04-06T06:32:10;13.30;;;9.80;;
21507;SDS011;10915;54.352;9.074;2023-04-06T06:34:36;15.20;;;10.97;;
21507;SDS011;10915;54.352;9.074;2023-04-06T06:37:02;13.63;;;10.97;;
21507;SDS011;10915;54.352;9.074;2023-04-06T06:39:27;15.27;;;10.83;;
21507;SDS011;10915;54.352;9.074;2023-04-06T06:41:53;15.00;;;11.07;;
21507;SDS011;10915;54.352;9.074;2023-04-06T06:44:20;13.80;;;10.80;;
21507;SDS011;10915;54.352;9.074;2023-04-06T06:46:46;14.27;;;11.03;;
21507;SDS011;10915;54.352;9.074;2023-04-06T06:49:12;17.43;;;10.73;;
21507;SDS011;10915;54.352;9.074;2023-04-06T06:51:39;12.50;;;9.90;;
21507;SDS011;10915;54.352;9.074;2023-04-06T06:54:05;12.73;;;9.53;;
21507;SDS011;10915;54.352;9.074;2023-04-06T06:56:31;11.80;;;9.67;;
21507;SDS011;10915;54.352;9.074;2023-04-06T06:58:56;14.27;;;10.00;;
21507;SDS011;10915;54.352;9.074;2023-04-06T07:01:22;12.37;;;9.83;;
21507;SDS011;10915;54.352;9.074;2023-04-06T07:03:48;12.43;;;9.37;;
21507;SDS011;10915;54.352;9.074;2023-04-06T07:06:13;11.47;;;9.43;;
21507;SDS011;10915;54.352;9.074;2023-04-06T07:08:39;13.47;;;10.60;;
21507;SDS011;10915;54.352;9.074;2023-04-06T07:11:05;12.87;;;9.90;;
21507;SDS011;10915;54.352;9.074;2023-04-06T07:13:30;11.47;;;10.00;;
21507;SDS011;10915;54.352;9.074;2023-04-06T07:15:56;14.07;;;10.10;;
21507;SDS011;10915;54.352;9.074;2023-04-06T07:18:22;13.27;;;9.97;;
21507;SDS011;10915;54.352;9.074;2023-04-06T07:20:47;12.80;;;10.13;;
21507;SDS011;10915;54.352;9.074;2023-04-06T07:23:13;11.97;;;9.17;;
21507;SDS011;10915;54.352;9.074;2023-04-06T07:25:39;9.77;;;8.73;;
21507;SDS011;10915;54.352;9.074;2023-04-06T07:28:05;12.33;;;9.70;;
21507;SDS011;10915;54.352;9.074;2023-04-06T07:30:31;12.67;;;10.13;;
21507;SDS011;10915;54.352;9.074;2023-04-06T07:32:56;12.30;;;9.30;;
21507;SDS011;10915;54.352;9.074;2023-04-06T07:35:24;11.73;;;8.30;;
21507;SDS011;10915;54.352;9.074;2023-04-06T07:37:51;13.60;;;9.23;;
21507;SDS011;10915;54.352;9.074;2023-04-06T07:40:20;13.20;;;8.87;;
21507;SDS011;10915;54.352;9.074;2023-04-06T07:42:45;12.10;;;8.20;;
21507;SDS011;10915;54.352;9.074;2023-04-06T07:45:11;10.30;;;7.43;;
21507;SDS011;10915;54.352;9.074;2023-04-06T07:47:45;10.53;;;7.70;;
21507;SDS011;10915;54.352;9.074;2023-04-06T07:50:11;9.97;;;6.93;;
21507;SDS011;10915;54.352;9.074;2023-04-06T07:52:37;10.40;;;7.20;;
21507;SDS011;10915;54.352;9.074;2023-04-06T07:55:03;9.63;;;6.60;;
21507;SDS011;10915;54.352;9.074;2023-04-06T07:57:29;9.83;;;6.33;;
21507;SDS011;10915;54.352;9.074;2023-04-06T07:59:55;10.67;;;6.63;;
21507;SDS011;10915;54.352;9.074;2023-04-06T08:02:20;10.63;;;6.27;;
21507;SDS011;10915;54.352;9.074;2023-04-06T08:04:47;7.90;;;6.07;;
21507;SDS011;10915;54.352;9.074;2023-04-06T08:07:12;11.77;;;6.53;;
21507;SDS011;10915;54.352;9.074;2023-04-06T08:09:38;9.77;;;6.17;;
21507;SDS011;10915;54.352;9.074;2023-04-06T08:12:04;9.30;;;6.07;;
21507;SDS011;10915;54.352;9.074;2023-04-06T08:14:30;9.80;;;6.13;;
21507;SDS011;10915;54.352;9.074;2023-04-06T08:16:56;11.53;;;5.93;;
21507;SDS011;10915;54.352;9.074;2023-04-06T08:19:21;10.40;;;6.50;;
21507;SDS011;10915;54.352;9.074;2023-04-06T08:21:47;9.23;;;6.87;;
21507;SDS011;10915;54.352;9.074;2023-04-06T08:24:13;11.90;;;6.43;;
21507;SDS011;10915;54.352;9.074;2023-04-06T08:26:39;9.17;;;6.20;;
21507;SDS011;10915;54.352;9.074;2023-04-06T08:29:05;12.53;;;6.53;;
21507;SDS011;10915;54.352;9.074;2023-04-06T08:31:33;13.27;;;6.80;;
21507;SDS011;10915;54.352;9.074;2023-04-06T08:33:58;8.53;;;5.90;;
21507;SDS011;10915;54.352;9.074;2023-04-06T08:36:24;8.70;;;6.20;;
21507;SDS011;10915;54.352;9.074;2023-04-06T08:38:50;9.00;;;6.93;;
21507;SDS011;10915;54.352;9.074;2023-04-06T08:41:16;10.53;;;6.80;;
21507;SDS011;10915;54.352;9.074;2023-04-06T08:43:49;9.47;;;6.60;;
21507;SDS011;10915;54.352;9.074;2023-04-06T08:46:20;10.37;;;7.60;;
21507;SDS011;10915;54.352;9.074;2023-04-06T08:48:46;7.60;;;6.23;;
21507;SDS011;10915;54.352;9.074;2023-04-06T08:51:14;8.40;;;6.53;;
21507;SDS011;10915;54.352;9.074;2023-04-06T08:53:41;8.47;;;5.97;;
21507;SDS011;10915;54.352;9.074;2023-04-06T08:56:07;7.27;;;6.03;;
21507;SDS011;10915;54.352;9.074;2023-04-06T08:58:35;8.97;;;6.47;;
21507;SDS011;10915;54.352;9.074;2023-04-06T09:01:08;9.13;;;6.50;;
21507;SDS011;10915;54.352;9.074;2023-04-06T09:03:39;11.37;;;6.23;;
21507;SDS011;10915;54.352;9.074;2023-04-06T09:06:06;8.00;;;5.97;;
21507;SDS011;10915;54.352;9.074;2023-04-06T09:08:33;9.63;;;6.73;;
21507;SDS011;10915;54.352;9.074;2023-04-06T09:11:00;11.60;;;6.27;;
21507;SDS011;10915;54.352;9.074;2023-04-06T09:13:27;8.90;;;6.30;;
21507;SDS011;10915;54.352;9.074;2023-04-06T09:16:02;8.60;;;5.70;;
21507;SDS011;10915;54.352;9.074;2023-04-06T09:18:32;12.13;;;6.07;;
21507;SDS011;10915;54.352;9.074;2023-04-06T09:21:02;9.20;;;6.53;;
21507;SDS011;10915;54.352;9.074;2023-04-06T09:23:29;9.07;;;5.53;;
21507;SDS011;10915;54.352;9.074;2023-04-06T09:26:07;9.33;;;5.40;;
21507;SDS011;10915;54.352;9.074;2023-04-06T09:28:47;8.70;;;5.53;;
21507;SDS011;10915;54.352;9.074;2023-04-06T09:31:25;7.70;;;4.90;;
21507;SDS011;10915;54.352;9.074;2023-04-06T09:33:52;7.40;;;5.80;;
21507;SDS011;10915;54.352;9.074;2023-04-06T09:36:18;7.10;;;5.27;;
21507;SDS011;10915;54.352;9.074;2023-04-06T09:38:54;8.93;;;4.40;;
21507;SDS011;10915;54.352;9.074;2023-04-06T09:41:22;6.33;;;3.93;;
21507;SDS011;10915;54.352;9.074;2023-04-06T09:44:01;7.77;;;3.93;;
21507;SDS011;10915;54.352;9.074;2023-04-06T09:46:30;6.37;;;3.57;;
21507;SDS011;10915;54.352;9.074;2023-04-06T09:49:01;9.03;;;3.10;;
21507;SDS011;10915;54.352;9.074;2023-04-06T09:51:32;7.73;;;3.10;;
21507;SDS011;10915;54.352;9.074;2023-04-06T09:54:18;4.53;;;2.97;;
21507;SDS011;10915;54.352;9.074;2023-04-06T09:56:48;5.47;;;3.03;;
21507;SDS011;10915;54.352;9.074;2023-04-06T10:08:16;5.50;;;3.33;;
21507;SDS011;10915;54.352;9.074;2023-04-06T10:10:44;5.60;;;3.50;;
21507;SDS011;10915;54.352;9.074;2023-04-06T10:13:11;5.53;;;3.23;;
21507;SDS011;10915;54.352;9.074;2023-04-06T10:15:37;6.30;;;3.33;;
21507;SDS011;10915;54.352;9.074;2023-04-06T10:18:04;6.00;;;3.37;;
21507;SDS011;10915;54.352;9.074;2023-04-06T10:20:40;7.50;;;3.47;;
21507;SDS011;10915;54.352;9.074;2023-04-06T10:23:13;5.07;;;2.93;;
21507;SDS011;10915;54.352;9.074;2023-04-06T10:26:00;4.83;;;2.93;;
21507;SDS011;10915;54.352;9.074;2023-04-06T10:28:35;9.03;;;3.90;;
21507;SDS011;10915;54.352;9.074;2023-04-06T10:31:02;4.67;;;3.07;;
21507;SDS011;10915;54.352;9.074;2023-04-06T10:33:31;7.13;;;4.00;;
21507;SDS011;10915;54.352;9.074;2023-04-06T10:35:57;7.50;;;4.30;;
21507;SDS011;10915;54.352;9.074;2023-04-06T10:38:33;4.97;;;3.83;;
21507;SDS011;10915;54.352;9.074;2023-04-06T10:41:03;6.40;;;3.70;;
21507;SDS011;10915;54.352;9.074;2023-04-06T10:43:32;6.73;;;3.80;;
21507;SDS011;10915;54.352;9.074;2023-04-06T10:46:02;7.30;;;4.23;;
21507;SDS011;10915;54.352;9.074;2023-04-06T10:48:41;6.63;;;3.90;;
21507;SDS011;10915;54.352;9.074;2023-04-06T10:51:12;6.23;;;3.67;;
21507;SDS011;10915;54.352;9.074;2023-04-06T10:53:43;7.37;;;3.53;;
21507;SDS011;10915;54.352;9.074;2023-04-06T10:56:12;7.20;;;4.40;;
21507;SDS011;10915;54.352;9.074;2023-04-06T10:58:46;6.90;;;4.37;;
21507;SDS011;10915;54.352;9.074;2023-04-06T11:01:13;6.83;;;4.13;;
21507;SDS011;10915;54.352;9.074;2023-04-06T11:06:10;8.93;;;5.20;;
21507;SDS011;10915;54.352;9.074;2023-04-06T11:08:45;7.47;;;5.10;;
21507;SDS011;10915;54.352;9.074;2023-04-06T11:11:11;10.77;;;4.47;;
21507;SDS011;10915;54.352;9.074;2023-04-06T11:16:22;13.23;;;5.07;;
21507;SDS011;10915;54.352;9.074;2023-04-06T11:18:49;8.83;;;5.07;;
21507;SDS011;10915;54.352;9.074;2023-04-06T11:21:32;9.40;;;4.83;;
21507;SDS011;10915;54.352;9.074;2023-04-06T11:24:08;9.13;;;4.90;;
21507;SDS011;10915;54.352;9.074;2023-04-06T11:29:08;8.73;;;4.93;;
21507;SDS011;10915;54.352;9.074;2023-04-06T11:32:08;9.00;;;5.00;;
21507;SDS011;10915;54.352;9.074;2023-04-06T11:34:33;7.67;;;5.27;;
21507;SDS011;10915;54.352;9.074;2023-04-06T11:37:07;9.23;;;5.17;;
21507;SDS011;10915;54.352;9.074;2023-04-06T11:39:38;9.23;;;5.60;;
21507;SDS011;10915;54.352;9.074;2023-04-06T11:42:05;7.73;;;5.13;;
21507;SDS011;10915;54.352;9.074;2023-04-06T11:47:06;9.60;;;6.03;;
21507;SDS011;10915;54.352;9.074;2023-04-06T11:49:36;15.80;;;7.17;;
21507;SDS011;10915;54.352;9.074;2023-04-06T11:52:02;8.93;;;6.83;;
21507;SDS011;10915;54.352;9.074;2023-04-06T11:54:38;11.17;;;7.90;;
21507;SDS011;10915;54.352;9.074;2023-04-06T11:57:05;11.77;;;7.80;;
21507;SDS011;10915;54.352;9.074;2023-04-06T11:59:33;10.53;;;8.07;;
21507;SDS011;10915;54.352;9.074;2023-04-06T12:01:59;11.53;;;7.73;;
21507;SDS011;10915;54.352;9.074;2023-04-06T12:04:27;11.53;;;7.93;;
21507;SDS011;10915;54.352;9.074;2023-04-06T12:06:52;11.53;;;8.00;;
21507;SDS011;10915;54.352;9.074;2023-04-06T12:09:18;10.53;;;7.60;;
21507;SDS011;10915;54.352;9.074;2023-04-06T12:11:44;12.57;;;8.37;;
21507;SDS011;10915;54.352;9.074;2023-04-06T12:14:10;11.00;;;8.23;;
21507;SDS011;10915;54.352;9.074;2023-04-06T12:19:11;13.57;;;9.50;;
21507;SDS011;10915;54.352;9.074;2023-04-06T12:21:37;15.23;;;9.17;;
21507;SDS011;10915;54.352;9.074;2023-04-06T12:24:03;13.13;;;9.13;;
21507;SDS011;10915;54.352;9.074;2023-04-06T12:26:30;13.43;;;9.90;;
21507;SDS011;10915;54.352;9.074;2023-04-06T12:28:56;16.33;;;11.03;;
21507;SDS011;10915;54.352;9.074;2023-04-06T12:31:22;15.23;;;10.93;;
21507;SDS011;10915;54.352;9.074;2023-04-06T12:33:50;15.07;;;10.87;;
21507;SDS011;10915;54.352;9.074;2023-04-06T12:36:17;13.13;;;9.80;;
21507;SDS011;10915;54.352;9.074;2023-04-06T12:38:48;14.37;;;10.73;;
21507;SDS011;10915;54.352;9.074;2023-04-06T12:41:13;17.27;;;12.80;;
21507;SDS011;10915;54.352;9.074;2023-04-06T12:43:40;17.47;;;12.13;;
21507;SDS011;10915;54.352;9.074;2023-04-06T12:46:06;15.47;;;12.30;;
21507;SDS011;10915;54.352;9.074;2023-04-06T12:48:32;16.10;;;11.07;;
21507;SDS011;10915;54.352;9.074;2023-04-06T12:50:59;20.07;;;12.07;;
21507;SDS011;10915;54.352;9.074;2023-04-06T12:53:28;16.30;;;11.67;;
21507;SDS011;10915;54.352;9.074;2023-04-06T12:55:55;15.07;;;11.13;;
21507;SDS011;10915;54.352;9.074;2023-04-06T12:58:21;15.60;;;11.57;;
21507;SDS011;10915;54.352;9.074;2023-04-06T13:00:48;15.97;;;10.80;;
21507;SDS011;10915;54.352;9.074;2023-04-06T13:03:15;14.90;;;10.63;;
21507;SDS011;10915;54.352;9.074;2023-04-06T13:05:44;14.03;;;10.70;;
21507;SDS011;10915;54.352;9.074;2023-04-06T13:08:10;17.67;;;10.37;;
21507;SDS011;10915;54.352;9.074;2023-04-06T13:10:36;14.67;;;9.63;;
21507;SDS011;10915;54.352;9.074;2023-04-06T13:13:02;12.60;;;9.70;;
21507;SDS011;10915;54.352;9.074;2023-04-06T13:15:28;12.47;;;9.30;;
21507;SDS011;10915;54.352;9.074;2023-04-06T13:17:54;13.20;;;9.47;;
21507;SDS011;10915;54.352;9.074;2023-04-06T13:20:20;16.00;;;8.83;;
21507;SDS011;10915;54.352;9.074;2023-04-06T13:22:46;14.50;;;9.07;;
21507;SDS011;10915;54.352;9.074;2023-04-06T13:25:12;12.97;;;8.50;;
21507;SDS011;10915;54.352;9.074;2023-04-06T13:27:37;12.93;;;8.40;;
21507;SDS011;10915;54.352;9.074;2023-04-06T13:30:03;11.33;;;8.70;;
21507;SDS011;10915;54.352;9.074;2023-04-06T13:32:30;14.03;;;9.00;;
21507;SDS011;10915;54.352;9.074;2023-04-06T13:34:55;13.57;;;8.47;;
21507;SDS011;10915;54.352;9.074;2023-04-06T13:37:22;11.47;;;8.03;;
21507;SDS011;10915;54.352;9.074;2023-04-06T13:39:48;12.20;;;8.53;;
21507;SDS011;10915;54.352;9.074;2023-04-06T13:42:13;11.07;;;7.90;;
21507;SDS011;10915;54.352;9.074;2023-04-06T13:44:39;13.63;;;8.27;;
21507;SDS011;10915;54.352;9.074;2023-04-06T13:47:05;10.30;;;7.73;;
21507;SDS011;10915;54.352;9.074;2023-04-06T13:49:31;10.43;;;7.00;;
21507;SDS011;10915;54.352;9.074;2023-04-06T13:51:57;10.43;;;7.57;;
21507;SDS011;10915;54.352;9.074;2023-04-06T13:54:23;12.13;;;7.73;;
21507;SDS011;10915;54.352;9.074;2023-04-06T13:56:51;10.17;;;7.80;;
21507;SDS011;10915;54.352;9.074;2023-04-06T13:59:16;12.13;;;7.70;;
21507;SDS011;10915;54.352;9.074;2023-04-06T14:01:42;14.20;;;7.87;;
21507;SDS011;10915;54.352;9.074;2023-04-06T14:04:07;9.57;;;7.60;;
21507;SDS011;10915;54.352;9.074;2023-04-06T14:06:33;12.07;;;8.03;;
21507;SDS011;10915;54.352;9.074;2023-04-06T14:08:59;11.60;;;7.90;;
21507;SDS011;10915;54.352;9.074;2023-04-06T14:11:24;11.73;;;8.27;;
21507;SDS011;10915;54.352;9.074;2023-04-06T14:13:51;10.30;;;7.53;;
21507;SDS011;10915;54.352;9.074;2023-04-06T14:16:16;11.57;;;8.17;;
21507;SDS011;10915;54.352;9.074;2023-04-06T14:18:44;12.07;;;7.70;;
21507;SDS011;10915;54.352;9.074;2023-04-06T14:21:10;11.97;;;8.03;;
21507;SDS011;10915;54.352;9.074;2023-04-06T14:23:36;12.27;;;8.43;;
21507;SDS011;10915;54.352;9.074;2023-04-06T14:26:05;13.50;;;8.43;;
21507;SDS011;10915;54.352;9.074;2023-04-06T14:28:33;11.13;;;7.87;;
21507;SDS011;10915;54.352;9.074;2023-04-06T14:31:01;11.57;;;8.37;;
21507;SDS011;10915;54.352;9.074;2023-04-06T14:33:34;12.57;;;8.73;;
21507;SDS011;10915;54.352;9.074;2023-04-06T14:36:02;11.57;;;8.20;;
21507;SDS011;10915;54.352;9.074;2023-04-06T14:38:31;14.00;;;8.87;;
21507;SDS011;10915;54.352;9.074;2023-04-06T14:40:57;11.17;;;8.07;;
21507;SDS011;10915;54.352;9.074;2023-04-06T14:43:23;12.13;;;8.37;;
21507;SDS011;10915;54.352;9.074;2023-04-06T14:45:49;13.17;;;8.90;;
21507;SDS011;10915;54.352;9.074;2023-04-06T14:48:15;11.67;;;8.53;;
21507;SDS011;10915;54.352;9.074;2023-04-06T14:50:51;11.17;;;8.33;;
21507;SDS011;10915;54.352;9.074;2023-04-06T14:53:26;11.53;;;8.23;;
21507;SDS011;10915;54.352;9.074;2023-04-06T14:55:52;11.13;;;8.37;;
21507;SDS011;10915;54.352;9.074;2023-04-06T14:58:19;12.97;;;9.20;;
21507;SDS011;10915;54.352;9.074;2023-04-06T15:00:45;11.60;;;8.53;;